Terminal Aerodrome Forecast
Issued by NWS

Home | Current Version | Previous Version | Text Only | Print | Product List | Glossary On
Versions: 1 2 3 4 5 6 7 8 9 10 11 12 13
056
FTUS46 KSGX 261026 AAA
TAFTRM
TAF AMD
KTRM 261026Z 2610/2706 31009KT P6SM SCT200
     FM261600 VRB04KT P6SM SCT200
     FM262100 14008KT P6SM SCT200
     FM270200 33015G25KT P6SM SCT200=

USA.gov is the U.S. government's official web portal to all federal, state and local government web resources and services.